createdAt,value
2018-10-18T00:00:09.903Z,18.17
2018-10-18T00:01:20.284Z,18.31
2018-10-18T00:02:30.370Z,18.26
2018-10-18T00:03:40.208Z,18.2
2018-10-18T00:04:50.015Z,18.24
2018-10-18T00:06:01.098Z,18.17
2018-10-18T00:07:11.831Z,18.21
2018-10-18T00:08:22.253Z,18.17
2018-10-18T00:09:32.344Z,18.23
2018-10-18T00:10:42.682Z,18.14
2018-10-18T00:11:53.055Z,18.17
2018-10-18T00:13:03.330Z,18.19
2018-10-18T00:14:13.951Z,18.13
2018-10-18T00:15:24.767Z,18.2
2018-10-18T00:16:34.588Z,18.14
2018-10-18T00:17:44.730Z,18.2
2018-10-18T00:18:54.795Z,18.24
2018-10-18T00:20:05.045Z,18.27
2018-10-18T00:21:15.267Z,18.16
2018-10-18T00:22:25.407Z,18.26
2018-10-18T00:23:35.246Z,18.17
2018-10-18T00:24:45.370Z,18.31
2018-10-18T00:25:55.522Z,18.23
2018-10-18T00:27:05.410Z,18.16
2018-10-18T00:28:15.496Z,18.2
2018-10-18T00:29:25.321Z,18.2
2018-10-18T00:30:35.482Z,18.21
2018-10-18T00:31:45.685Z,18.19
2018-10-18T00:32:55.768Z,18.26
2018-10-18T00:34:06.070Z,18.16
2018-10-18T00:35:16.477Z,18.19
2018-10-18T00:36:27.715Z,18.19
2018-10-18T00:37:37.787Z,18.13
2018-10-18T00:38:48.102Z,18.14
2018-10-18T00:39:58.222Z,18.13
2018-10-18T00:41:09.169Z,18.13
2018-10-18T00:42:20.076Z,18.05
2018-10-18T00:43:29.888Z,18.05
2018-10-18T00:44:39.999Z,18.14
2018-10-18T00:45:50.106Z,18.05
2018-10-18T00:47:02.912Z,18.05
2018-10-18T00:48:13.517Z,18.06
2018-10-18T00:49:24.002Z,18.05
2018-10-18T00:50:33.837Z,18.11
2018-10-18T00:51:44.123Z,18.08
2018-10-18T00:52:54.714Z,18.05
2018-10-18T00:54:05.116Z,18.05
2018-10-18T00:55:15.663Z,17.98
2018-10-18T00:56:25.989Z,17.98
2018-10-18T00:57:35.832Z,17.9
2018-10-18T00:58:46.368Z,17.99
2018-10-18T00:59:56.479Z,17.95
2018-10-18T01:01:08.247Z,17.95
2018-10-18T01:02:18.691Z,17.99
2018-10-18T01:03:29.157Z,17.94
2018-10-18T01:04:39.475Z,17.92
2018-10-18T01:05:49.345Z,17.87
2018-10-18T01:06:59.722Z,17.9
2018-10-18T01:08:10.154Z,17.83
2018-10-18T01:09:19.939Z,17.88
2018-10-18T01:10:30.047Z,17.87
2018-10-18T01:11:40.452Z,17.94
2018-10-18T01:12:51.239Z,17.86
2018-10-18T01:14:01.838Z,17.83
2018-10-18T01:15:12.487Z,17.86
2018-10-18T01:16:22.922Z,17.83
2018-10-18T01:17:33.434Z,17.86
2018-10-18T01:18:43.742Z,17.9
2018-10-18T01:19:53.892Z,17.98
2018-10-18T01:21:05.049Z,17.94
2018-10-18T01:22:15.444Z,17.87
2018-10-18T01:23:25.536Z,17.87
2018-10-18T01:24:35.580Z,17.81
2018-10-18T01:25:45.687Z,17.81
2018-10-18T01:26:55.761Z,17.84
2018-10-18T01:28:06.949Z,17.99
2018-10-18T01:29:16.536Z,17.84
2018-10-18T01:30:26.844Z,17.83
2018-10-18T01:31:37.681Z,17.92
2018-10-18T01:32:47.960Z,17.99
2018-10-18T01:33:58.199Z,17.87
2018-10-18T01:35:08.747Z,17.86
2018-10-18T01:36:19.207Z,17.9
2018-10-18T01:37:29.543Z,17.98
2018-10-18T01:38:40.159Z,17.88
2018-10-18T01:39:50.357Z,18.02
2018-10-18T01:41:00.663Z,17.92
2018-10-18T01:42:10.721Z,17.95
2018-10-18T01:43:21.259Z,17.94
2018-10-18T01:44:31.369Z,17.96
2018-10-18T01:45:41.730Z,18.01
2018-10-18T01:46:51.512Z,18.05
2018-10-18T01:48:02.103Z,18.01
2018-10-18T01:49:12.669Z,18.03
2018-10-18T01:50:22.731Z,18.01
2018-10-18T01:51:32.820Z,18.01
2018-10-18T01:52:43.168Z,18.03
2018-10-18T01:53:53.496Z,18.05
2018-10-18T01:55:04.147Z,18.03
2018-10-18T01:56:14.686Z,18.05
2018-10-18T01:57:25.319Z,18.03
2018-10-18T01:58:35.447Z,17.96
2018-10-18T01:59:45.516Z,17.88
2018-10-18T02:00:55.648Z,17.88
2018-10-18T02:02:05.997Z,17.84
2018-10-18T02:03:16.513Z,17.92
2018-10-18T02:04:26.579Z,17.84
2018-10-18T02:05:36.703Z,17.92
2018-10-18T02:06:46.811Z,17.88
2018-10-18T02:07:56.952Z,17.88
2018-10-18T02:09:07.473Z,17.84
2018-10-18T02:10:17.278Z,17.86
2018-10-18T02:11:27.129Z,17.95
2018-10-18T02:12:37.979Z,18.01
2018-10-18T02:13:48.783Z,17.95
2018-10-18T02:14:58.891Z,17.98
2018-10-18T02:16:09.192Z,17.88
2018-10-18T02:17:19.481Z,17.92
2018-10-18T02:18:29.620Z,17.94
2018-10-18T02:19:40.423Z,17.94
2018-10-18T02:21:05.906Z,17.92
2018-10-18T02:22:16.531Z,18.02
2018-10-18T02:23:26.344Z,17.98
2018-10-18T02:24:36.826Z,17.98
2018-10-18T02:25:47.785Z,17.88
2018-10-18T02:26:58.180Z,17.95
2018-10-18T02:28:10.808Z,17.81
2018-10-18T02:29:20.345Z,17.87
2018-10-18T02:30:30.448Z,17.79
2018-10-18T02:31:40.774Z,17.79
2018-10-18T02:32:51.513Z,17.79
2018-10-18T02:34:01.337Z,17.77
2018-10-18T02:35:11.641Z,17.76
2018-10-18T02:36:22.144Z,17.69
2018-10-18T02:37:32.631Z,17.66
2018-10-18T02:38:42.943Z,17.63
2018-10-18T02:39:53.278Z,17.63
2018-10-18T02:41:03.600Z,17.46
2018-10-18T02:42:13.988Z,17.43
2018-10-18T02:43:24.677Z,17.38
2018-10-18T02:44:34.960Z,17.36
2018-10-18T02:45:45.538Z,17.3
2018-10-18T02:46:56.046Z,17.24
2018-10-18T02:48:08.535Z,17.2
2018-10-18T02:49:19.110Z,17.22
2018-10-18T02:50:29.581Z,17.07
2018-10-18T02:51:40.324Z,17.17
2018-10-18T02:52:50.402Z,17.12
2018-10-18T02:54:00.619Z,16.97
2018-10-18T02:55:11.388Z,16.88
2018-10-18T02:56:21.557Z,16.99
2018-10-18T02:57:32.077Z,16.9
2018-10-18T02:58:42.731Z,16.94
2018-10-18T02:59:52.931Z,16.88
2018-10-18T03:01:03.053Z,16.85
2018-10-18T03:02:13.201Z,16.84
2018-10-18T03:34:52.532Z,14.39
2018-10-18T03:36:04.180Z,14.33
2018-10-18T03:37:14.863Z,14.27
2018-10-18T03:38:24.948Z,14.23
2018-10-18T03:39:35.456Z,14.23
2018-10-18T03:40:45.499Z,14.28
2018-10-18T03:41:55.908Z,14.31
2018-10-18T03:43:06.590Z,14.31
2018-10-18T03:44:16.708Z,14.41
2018-10-18T03:45:26.967Z,14.51
2018-10-18T03:46:37.108Z,14.49
2018-10-18T03:47:47.402Z,14.56
2018-10-18T03:48:57.488Z,14.63
2018-10-18T03:50:07.787Z,14.66
2018-10-18T03:51:18.335Z,14.66
2018-10-18T03:52:28.143Z,14.74
2018-10-18T03:53:38.213Z,14.79
2018-10-18T03:54:48.691Z,14.75
2018-10-18T03:55:58.834Z,14.83
2018-10-18T03:57:08.894Z,14.9
2018-10-18T03:58:19.023Z,14.86
2018-10-18T03:59:29.274Z,15.01
2018-10-18T04:00:39.949Z,15.12
2018-10-18T04:01:50.230Z,15.08
2018-10-18T04:03:01.690Z,15.1
2018-10-18T04:04:11.791Z,15.1
2018-10-18T04:05:21.895Z,15.15
2018-10-18T04:06:32.005Z,15.15
2018-10-18T04:07:42.304Z,15.16
2018-10-18T04:08:52.632Z,15.08
2018-10-18T04:10:02.944Z,15.12
2018-10-18T04:11:13.023Z,15.15
2018-10-18T04:12:23.651Z,15.12
2018-10-18T04:13:34.785Z,15.23
2018-10-18T04:14:45.166Z,15.18
2018-10-18T04:15:55.252Z,15.26
2018-10-18T04:17:05.089Z,15.25
2018-10-18T04:18:15.700Z,15.3
2018-10-18T04:19:25.589Z,15.26
2018-10-18T04:20:35.661Z,15.33
2018-10-18T04:21:45.783Z,15.26
2018-10-18T04:22:55.521Z,15.3
2018-10-18T04:24:06.017Z,15.3
2018-10-18T04:25:16.389Z,15.31
2018-10-18T04:26:26.277Z,15.31
2018-10-18T04:27:36.595Z,15.26
2018-10-18T04:28:46.740Z,15.34
2018-10-18T04:29:57.159Z,15.33
2018-10-18T04:31:07.529Z,15.3
2018-10-18T04:32:17.808Z,15.31
2018-10-18T04:33:28.153Z,15.31
2018-10-18T04:34:38.384Z,15.27
2018-10-18T04:35:48.709Z,15.33
2018-10-18T04:36:59.217Z,15.38
2018-10-18T04:38:10.640Z,15.34
2018-10-18T04:39:20.974Z,15.41
2018-10-18T04:40:31.086Z,15.49
2018-10-18T04:41:41.380Z,15.45
2018-10-18T04:42:52.074Z,15.44
2018-10-18T04:44:02.399Z,15.43
2018-10-18T04:45:12.510Z,15.43
2018-10-18T04:46:23.073Z,15.47
2018-10-18T04:47:33.047Z,15.43
2018-10-18T04:48:43.712Z,15.49
2018-10-18T04:49:54.404Z,15.44
2018-10-18T04:51:05.011Z,15.44
2018-10-18T04:52:15.318Z,15.4
2018-10-18T04:53:25.641Z,15.43
2018-10-18T04:54:35.728Z,15.35
2018-10-18T04:55:45.553Z,15.31
2018-10-18T04:56:56.105Z,15.33
2018-10-18T04:58:06.866Z,15.3
2018-10-18T04:59:17.384Z,15.26
2018-10-18T05:00:27.663Z,15.23
2018-10-18T05:01:38.120Z,15.19
2018-10-18T05:02:48.157Z,15.12
2018-10-18T05:03:57.836Z,15.13
2018-10-18T05:05:07.774Z,15.13
2018-10-18T05:06:17.892Z,15.13
2018-10-18T05:07:28.576Z,15.02
2018-10-18T05:08:38.974Z,14.97
2018-10-18T05:09:49.334Z,14.94
2018-10-18T05:10:59.154Z,14.94
2018-10-18T05:12:09.442Z,14.89
2018-10-18T05:13:19.998Z,14.83
2018-10-18T05:14:30.371Z,14.75
2018-10-18T05:15:40.818Z,14.82
2018-10-18T05:16:50.951Z,14.79
2018-10-18T05:18:02.329Z,14.83
2018-10-18T05:19:12.739Z,14.79
2018-10-18T05:20:23.647Z,14.83
2018-10-18T05:21:34.012Z,14.77
2018-10-18T05:22:44.561Z,14.75
2018-10-18T05:23:54.751Z,14.75
2018-10-18T05:25:05.012Z,14.8
2018-10-18T05:26:15.399Z,14.7
2018-10-18T05:27:25.531Z,14.67
2018-10-18T05:28:36.601Z,14.69
2018-10-18T05:29:47.018Z,14.61
2018-10-18T05:30:57.487Z,14.69
2018-10-18T05:32:08.036Z,14.74
2018-10-18T05:33:18.650Z,14.64
2018-10-18T05:34:29.513Z,14.66
2018-10-18T05:35:39.642Z,14.63
2018-10-18T05:36:50.281Z,14.6
2018-10-18T05:38:00.611Z,14.75
2018-10-18T05:39:10.758Z,14.7
2018-10-18T05:40:21.295Z,14.63
2018-10-18T05:41:31.703Z,14.52
2018-10-18T05:42:41.820Z,14.6
2018-10-18T05:43:52.146Z,14.59
2018-10-18T05:45:02.280Z,14.66
2018-10-18T05:46:12.583Z,14.6
2018-10-18T05:47:23.089Z,14.6
2018-10-18T05:48:33.425Z,14.67
2018-10-18T05:49:43.728Z,14.64
2018-10-18T05:50:54.038Z,14.69
2018-10-18T05:52:05.014Z,14.67
2018-10-18T05:53:15.993Z,14.63
2018-10-18T05:54:26.662Z,14.66
2018-10-18T05:55:36.954Z,14.64
2018-10-18T05:56:47.443Z,14.6
2018-10-18T05:57:57.748Z,14.66
2018-10-18T05:59:08.466Z,14.69
2018-10-18T06:00:19.411Z,14.67
2018-10-18T06:01:30.140Z,14.79
2018-10-18T06:02:40.480Z,14.69
2018-10-18T06:03:50.748Z,14.8
2018-10-18T06:05:00.872Z,14.82
2018-10-18T06:06:11.838Z,14.85
2018-10-18T06:07:22.387Z,14.9
2018-10-18T06:08:33.049Z,14.86
2018-10-18T06:09:43.727Z,14.79
2018-10-18T06:10:54.071Z,14.77
2018-10-18T06:12:04.373Z,14.9
2018-10-18T06:13:14.825Z,14.86
2018-10-18T06:14:24.799Z,14.93
2018-10-18T06:15:34.836Z,14.86
2018-10-18T06:16:45.096Z,14.94
2018-10-18T06:17:54.937Z,14.9
2018-10-18T06:19:05.218Z,14.85
2018-10-18T06:20:15.907Z,14.82
2018-10-18T06:21:26.078Z,14.83
2018-10-18T06:22:36.198Z,14.74
2018-10-18T06:23:46.431Z,14.83
2018-10-18T06:24:56.623Z,14.8
2018-10-18T06:26:06.906Z,14.75
2018-10-18T06:27:16.742Z,14.77
2018-10-18T06:28:26.843Z,14.82
2018-10-18T06:29:36.679Z,14.79
2018-10-18T06:30:46.753Z,14.7
2018-10-18T06:31:56.889Z,14.74
2018-10-18T06:33:07.268Z,14.86
2018-10-18T06:34:17.881Z,14.75
2018-10-18T06:35:27.980Z,14.82
2018-10-18T06:36:37.802Z,14.71
2018-10-18T06:37:47.667Z,14.82
2018-10-18T06:38:57.528Z,14.85
2018-10-18T06:40:07.691Z,14.9
2018-10-18T06:41:18.258Z,14.89
2018-10-18T06:42:28.494Z,15.01
2018-10-18T06:43:38.632Z,15.1
2018-10-18T06:44:48.709Z,15.13
2018-10-18T06:45:58.779Z,15.15
2018-10-18T06:47:09.430Z,15.16
2018-10-18T06:48:20.120Z,15.2
2018-10-18T06:49:30.768Z,15.18
2018-10-18T06:50:41.228Z,15.23
2018-10-18T06:51:51.050Z,15.27
2018-10-18T06:53:00.872Z,15.22
2018-10-18T06:54:11.292Z,15.19
2018-10-18T06:55:21.205Z,15.25
2018-10-18T06:56:31.292Z,15.27
2018-10-18T06:57:41.381Z,15.22
2018-10-18T06:58:51.459Z,15.31
2018-10-18T07:00:02.286Z,15.34
2018-10-18T07:01:12.653Z,15.18
2018-10-18T07:02:22.698Z,15.33
2018-10-18T07:03:32.794Z,15.47
2018-10-18T07:04:42.941Z,15.47
2018-10-18T07:05:53.020Z,15.45
2018-10-18T07:07:03.241Z,15.43
2018-10-18T07:08:13.308Z,15.45
2018-10-18T07:09:23.825Z,15.44
2018-10-18T07:10:33.914Z,15.44
2018-10-18T07:11:44.116Z,15.49
2018-10-18T07:12:54.109Z,15.58
2018-10-18T07:14:04.187Z,15.52
2018-10-18T07:15:13.991Z,15.55
2018-10-18T07:16:24.060Z,15.58
2018-10-18T07:17:33.707Z,15.59
2018-10-18T07:18:44.051Z,15.65
2018-10-18T07:19:53.919Z,15.67
2018-10-18T07:21:04.987Z,15.78
2018-10-18T07:22:15.081Z,15.78
2018-10-18T07:23:25.182Z,15.74
2018-10-18T07:24:35.337Z,15.84
2018-10-18T07:25:45.566Z,15.78
2018-10-18T07:26:55.642Z,15.83
2018-10-18T07:28:07.662Z,15.8
2018-10-18T07:29:17.851Z,15.8
2018-10-18T07:30:27.696Z,15.88
2018-10-18T07:31:37.765Z,15.93
2018-10-18T07:32:47.827Z,15.92
2018-10-18T07:33:57.912Z,15.88
2018-10-18T07:35:07.825Z,16
2018-10-18T07:36:18.418Z,15.99
2018-10-18T07:37:28.287Z,15.95
2018-10-18T07:38:38.430Z,16.02
2018-10-18T07:39:48.245Z,15.95
2018-10-18T07:40:58.372Z,15.96
2018-10-18T07:42:08.550Z,15.95
2018-10-18T07:43:18.907Z,16.06
2018-10-18T07:44:28.741Z,16
2018-10-18T07:45:38.837Z,16.04
2018-10-18T07:46:49.272Z,16.1
2018-10-18T07:47:59.809Z,16.18
2018-10-18T07:49:10.514Z,16.22
2018-10-18T07:50:20.654Z,16.18
2018-10-18T07:51:30.742Z,16.26
2018-10-18T07:52:40.822Z,16.3
2018-10-18T07:53:50.748Z,16.32
2018-10-18T07:55:02.233Z,16.37
2018-10-18T07:56:12.318Z,16.44
2018-10-18T07:57:22.426Z,16.36
2018-10-18T07:58:32.252Z,16.39
2018-10-18T07:59:42.356Z,16.47
2018-10-18T08:00:53.217Z,16.47
2018-10-18T08:02:03.667Z,16.47
2018-10-18T08:03:13.739Z,16.47
2018-10-18T08:04:23.830Z,16.44
2018-10-18T08:05:33.971Z,16.48
2018-10-18T08:06:44.043Z,16.47
2018-10-18T08:07:53.881Z,16.4
2018-10-18T08:09:05.758Z,16.57
2018-10-18T08:10:15.875Z,16.59
2018-10-18T08:11:25.718Z,16.73
2018-10-18T08:12:35.778Z,16.76
2018-10-18T08:13:45.946Z,16.9
2018-10-18T08:14:56.054Z,16.99
2018-10-18T08:16:05.868Z,17.1
2018-10-18T08:17:16.060Z,17.05
2018-10-18T08:18:26.331Z,17.09
2018-10-18T08:19:36.163Z,17.21
2018-10-18T08:20:45.979Z,17.36
2018-10-18T08:21:56.057Z,17.32
2018-10-18T08:23:06.180Z,17.4
2018-10-18T08:24:16.504Z,17.43
2018-10-18T08:25:26.636Z,17.47
2018-10-18T08:26:36.462Z,17.5
2018-10-18T08:27:46.568Z,17.57
2018-10-18T08:28:56.732Z,17.55
2018-10-18T08:30:07.663Z,17.63
2018-10-18T08:31:18.256Z,17.84
2018-10-18T08:32:28.947Z,17.81
2018-10-18T08:33:39.033Z,17.83
2018-10-18T08:34:49.177Z,17.84
2018-10-18T08:35:59.262Z,17.87
2018-10-18T08:37:09.566Z,17.79
2018-10-18T08:38:20.265Z,17.77
2018-10-18T08:39:30.431Z,17.87
2018-10-18T08:40:40.590Z,18.05
2018-10-18T08:41:50.698Z,18.16
2018-10-18T08:43:00.827Z,18.47
2018-10-18T08:44:11.506Z,18.71
2018-10-18T08:45:21.701Z,18.9
2018-10-18T08:46:31.779Z,18.99
2018-10-18T08:47:41.937Z,19.2
2018-10-18T08:48:51.769Z,19.45
2018-10-18T08:50:02.382Z,19.49
2018-10-18T08:51:12.275Z,19.64
2018-10-18T08:52:26.552Z,19.72
2018-10-18T08:53:36.708Z,19.9
2018-10-18T08:54:49.060Z,19.92
2018-10-18T08:56:02.174Z,19.98
2018-10-18T08:57:12.022Z,20.18
2018-10-18T08:58:22.184Z,20.25
2018-10-18T08:59:32.158Z,20.22
2018-10-18T09:00:42.257Z,20.16
2018-10-18T09:01:52.331Z,20.15
2018-10-18T09:03:02.172Z,20.05
2018-10-18T09:04:11.729Z,20.12
2018-10-18T09:05:21.840Z,20.11
2018-10-18T09:06:31.657Z,20.15
2018-10-18T09:07:41.772Z,20.04
2018-10-18T09:08:52.104Z,20.25
2018-10-18T09:10:03.560Z,20.32
2018-10-18T09:11:13.620Z,20.4
2018-10-18T09:12:23.699Z,20.46
2018-10-18T09:13:33.792Z,20.42
2018-10-18T09:14:43.937Z,20.53
2018-10-18T09:15:53.851Z,20.53
2018-10-18T09:17:05.076Z,20.58
2018-10-18T09:18:15.151Z,20.71
2018-10-18T09:19:24.992Z,20.74
2018-10-18T09:20:35.073Z,20.83
2018-10-18T09:21:45.175Z,20.71
2018-10-18T09:22:55.255Z,20.64
2018-10-18T09:24:05.988Z,20.53
2018-10-18T09:25:16.190Z,20.35
2018-10-18T09:26:26.583Z,20.22
2018-10-18T09:27:36.657Z,20.12
2018-10-18T09:28:46.726Z,20.08
2018-10-18T09:29:56.850Z,20
2018-10-18T09:31:07.249Z,20.04
2018-10-18T09:32:17.591Z,20.07
2018-10-18T09:33:27.651Z,20.02
2018-10-18T09:34:37.445Z,20.11
2018-10-18T09:35:47.935Z,20.11
2018-10-18T09:36:58.157Z,20.12
2018-10-18T09:38:08.122Z,20.16
2018-10-18T09:39:18.055Z,20.37
2018-10-18T09:40:28.160Z,20.44
2018-10-18T09:41:37.967Z,20.58
2018-10-18T09:42:48.080Z,20.82
2018-10-18T09:43:58.207Z,20.94
2018-10-18T09:45:08.481Z,21.08
2018-10-18T09:46:18.559Z,21.22
2018-10-18T09:47:28.650Z,21.41
2018-10-18T09:48:38.723Z,21.59
2018-10-18T09:49:48.625Z,21.62
2018-10-18T09:50:58.701Z,21.68
2018-10-18T09:52:08.532Z,21.73
2018-10-18T09:53:18.633Z,21.93
2018-10-18T09:54:28.718Z,21.9
2018-10-18T09:55:39.211Z,21.92
2018-10-18T09:56:49.563Z,21.96
2018-10-18T09:57:59.656Z,22.08
2018-10-18T09:59:11.061Z,22.16
2018-10-18T10:00:21.171Z,22.14
2018-10-18T10:01:31.508Z,22.22
2018-10-18T10:02:41.605Z,22.22
2018-10-18T10:03:51.185Z,22.16
2018-10-18T10:05:01.006Z,21.96
2018-10-18T10:06:10.853Z,21.83
2018-10-18T10:07:21.370Z,21.77
2018-10-18T10:08:31.465Z,21.68
2018-10-18T10:09:41.570Z,21.73
2018-10-18T10:10:51.390Z,21.76
2018-10-18T10:12:01.243Z,21.86
2018-10-18T10:13:12.469Z,22.02
2018-10-18T10:14:23.208Z,22.23
2018-10-18T10:15:33.054Z,22.23
2018-10-18T10:16:43.158Z,22.3
2018-10-18T10:17:53.589Z,22.48
2018-10-18T10:19:04.804Z,22.51
2018-10-18T10:20:15.282Z,22.57
2018-10-18T10:21:25.109Z,22.69
2018-10-18T10:22:35.205Z,22.7
2018-10-18T10:23:45.290Z,22.79
2018-10-18T10:24:55.475Z,22.81
2018-10-18T10:26:06.187Z,22.85
2018-10-18T10:27:16.258Z,22.89
2018-10-18T10:28:26.069Z,22.88
2018-10-18T10:29:36.178Z,22.97
2018-10-18T10:30:46.293Z,22.94
2018-10-18T10:31:56.122Z,22.92
2018-10-18T10:33:06.704Z,23.03
2018-10-18T10:34:16.792Z,23.01
2018-10-18T10:35:26.751Z,23.14
2018-10-18T10:36:37.164Z,23.19
2018-10-18T10:37:47.254Z,23.21
2018-10-18T10:38:57.431Z,23.28
2018-10-18T10:40:08.618Z,23.24
2018-10-18T10:41:19.998Z,23.29
2018-10-18T10:42:31.816Z,23.32
2018-10-18T10:43:41.919Z,23.29
2018-10-18T10:44:52.229Z,23.34
2018-10-18T10:46:02.593Z,23.29
2018-10-18T10:47:13.057Z,23.37
2018-10-18T10:48:23.630Z,23.41
2018-10-18T10:49:33.725Z,23.4
2018-10-18T10:50:43.919Z,23.41
2018-10-18T10:51:53.783Z,23.42
2018-10-18T10:53:03.666Z,23.35
2018-10-18T10:54:14.113Z,23.4
2018-10-18T10:55:24.625Z,23.48
2018-10-18T10:56:34.707Z,23.56
2018-10-18T10:57:44.867Z,23.56
2018-10-18T10:58:55.123Z,23.53
2018-10-18T11:00:05.769Z,23.59
2018-10-18T11:01:16.226Z,23.6
2018-10-18T11:02:26.386Z,23.62
2018-10-18T11:03:36.971Z,23.63
2018-10-18T11:04:47.054Z,23.71
2018-10-18T11:05:57.204Z,23.67
2018-10-18T11:07:08.547Z,23.81
2018-10-18T11:08:19.094Z,23.79
2018-10-18T11:09:29.840Z,23.81
2018-10-18T11:10:39.968Z,23.79
2018-10-18T11:11:50.317Z,23.79
2018-10-18T11:13:00.321Z,23.87
2018-10-18T11:14:10.739Z,23.85
2018-10-18T11:15:21.259Z,23.9
2018-10-18T11:16:33.440Z,24.04
2018-10-18T11:17:46.781Z,24.03
2018-10-18T11:19:00.098Z,24.12
2018-10-18T11:20:11.961Z,24.22
2018-10-18T11:21:23.777Z,24.33
2018-10-18T11:22:34.035Z,24.32
2018-10-18T11:23:43.885Z,24.37
2018-10-18T11:24:54.524Z,24.37
2018-10-18T11:26:05.510Z,24.32
2018-10-18T11:27:16.498Z,24.18
2018-10-18T11:28:26.102Z,24.18
2018-10-18T11:29:36.205Z,24.12
2018-10-18T11:30:46.337Z,24.02
2018-10-18T11:31:56.543Z,24.09
2018-10-18T11:33:09.343Z,23.9
2018-10-18T11:34:19.523Z,24.03
2018-10-18T11:35:29.815Z,24.08
2018-10-18T11:36:39.964Z,24.02
2018-10-18T11:37:50.039Z,24.07
2018-10-18T11:39:01.079Z,24.08
2018-10-18T11:40:11.171Z,24.12
2018-10-18T11:41:21.020Z,24.22
2018-10-18T11:42:31.267Z,24.21
2018-10-18T11:43:41.571Z,24.21
2018-10-18T11:44:51.386Z,24.26
2018-10-18T11:46:02.769Z,24.33
2018-10-18T11:47:12.854Z,24.3
2018-10-18T11:48:23.000Z,24.29
2018-10-18T11:49:33.183Z,24.34
2018-10-18T11:50:43.379Z,24.33
2018-10-18T11:51:53.534Z,24.36
2018-10-18T11:53:03.187Z,24.46
2018-10-18T11:54:14.055Z,24.39
2018-10-18T11:55:24.358Z,24.46
2018-10-18T11:56:34.448Z,24.46
2018-10-18T11:57:44.272Z,24.51
2018-10-18T11:58:54.424Z,24.44
2018-10-18T12:00:04.369Z,24.58
2018-10-18T12:01:14.783Z,24.54
2018-10-18T12:02:25.541Z,24.44
2018-10-18T12:03:35.785Z,24.55
2018-10-18T12:04:45.888Z,24.52
2018-10-18T12:05:55.987Z,24.58
2018-10-18T12:07:06.096Z,24.45
2018-10-18T12:08:16.593Z,24.49
2018-10-18T12:09:26.792Z,24.46
2018-10-18T12:10:36.880Z,24.56
2018-10-18T12:11:47.016Z,24.54
2018-10-18T12:12:57.091Z,24.55
2018-10-18T12:14:06.884Z,24.61
2018-10-18T12:15:17.372Z,24.67
2018-10-18T12:16:27.693Z,24.55
2018-10-18T12:17:37.826Z,24.64
2018-10-18T12:18:47.942Z,24.67
2018-10-18T12:19:58.209Z,24.63
2018-10-18T12:21:08.486Z,24.66
2018-10-18T12:22:18.342Z,24.69
2018-10-18T12:23:28.442Z,24.7
2018-10-18T12:24:38.554Z,24.7
2018-10-18T12:25:48.662Z,24.74
2018-10-18T12:26:58.961Z,24.7
2018-10-18T12:28:09.559Z,24.74
2018-10-18T12:29:20.378Z,24.8
2018-10-18T12:30:30.649Z,24.83
2018-10-18T12:31:40.755Z,24.78
2018-10-18T12:32:50.625Z,24.78
2018-10-18T12:34:01.359Z,24.82
2018-10-18T12:35:11.751Z,24.9
2018-10-18T12:36:21.605Z,24.92
2018-10-18T12:37:31.705Z,24.8
2018-10-18T12:38:41.796Z,24.93
2018-10-18T12:39:51.617Z,24.86
2018-10-18T12:41:02.433Z,24.83
2018-10-18T12:42:13.141Z,24.93
2018-10-18T12:43:23.289Z,24.87
2018-10-18T12:44:33.245Z,24.86
2018-10-18T12:45:43.342Z,24.86
2018-10-18T12:46:53.474Z,24.86
2018-10-18T12:48:05.118Z,24.86
2018-10-18T12:49:15.701Z,24.9
2018-10-18T12:50:25.881Z,24.9
2018-10-18T12:51:35.986Z,25.02
2018-10-18T12:52:45.866Z,25
2018-10-18T12:53:55.948Z,24.86
2018-10-18T12:55:06.267Z,24.77
2018-10-18T12:56:16.715Z,24.8
2018-10-18T12:57:27.105Z,24.8
2018-10-18T12:58:37.206Z,24.8
2018-10-18T12:59:47.037Z,24.8
2018-10-18T13:00:57.160Z,24.8
2018-10-18T13:02:07.572Z,24.78
2018-10-18T13:03:18.169Z,24.7
2018-10-18T13:04:28.314Z,24.7
2018-10-18T13:05:38.419Z,24.55
2018-10-18T13:06:48.258Z,24.63
2018-10-18T13:07:58.105Z,24.69
2018-10-18T13:09:09.866Z,24.74
2018-10-18T13:10:19.697Z,24.71
2018-10-18T13:11:29.553Z,24.75
2018-10-18T13:12:40.231Z,24.66
2018-10-18T13:13:50.880Z,24.75
2018-10-18T13:15:01.041Z,24.67
2018-10-18T13:16:11.131Z,24.75
2018-10-18T13:17:21.233Z,24.69
2018-10-18T13:18:31.353Z,24.71
2018-10-18T13:19:41.437Z,24.8
2018-10-18T13:20:51.563Z,24.8
2018-10-18T13:22:01.653Z,24.74
2018-10-18T13:23:11.461Z,24.75
2018-10-18T13:24:21.395Z,24.75
2018-10-18T13:25:31.886Z,24.56
2018-10-18T13:26:42.012Z,24.33
2018-10-18T13:27:52.097Z,24.19
2018-10-18T13:29:02.943Z,24.18
2018-10-18T13:30:13.483Z,24.11
2018-10-18T13:31:23.734Z,24.03
2018-10-18T13:32:33.871Z,23.84
2018-10-18T13:33:43.704Z,23.85
2018-10-18T13:34:53.787Z,23.81
2018-10-18T13:36:04.045Z,23.75
2018-10-18T13:37:14.509Z,23.71
2018-10-18T13:38:24.339Z,23.67
2018-10-18T13:39:34.156Z,23.57
2018-10-18T13:40:44.563Z,23.53
2018-10-18T13:41:55.043Z,23.47
2018-10-18T13:43:05.299Z,23.48
2018-10-18T13:44:15.864Z,23.5
2018-10-18T13:45:25.942Z,23.29
2018-10-18T13:46:36.434Z,23.41
2018-10-18T13:47:46.593Z,23.29
2018-10-18T13:48:56.679Z,23.28
2018-10-18T13:50:08.052Z,23.24
2018-10-18T13:51:18.124Z,23.22
2018-10-18T13:52:28.216Z,23.18
2018-10-18T13:53:38.306Z,23.21
2018-10-18T13:54:48.134Z,23.1
2018-10-18T13:55:58.620Z,23.15
2018-10-18T13:57:08.883Z,23.09
2018-10-18T13:58:18.954Z,23.07
2018-10-18T13:59:29.747Z,23.14
2018-10-18T14:00:40.633Z,23.24
2018-10-18T14:01:50.828Z,23.35
2018-10-18T14:03:00.920Z,23.5
2018-10-18T14:04:11.019Z,23.52
2018-10-18T14:05:21.107Z,23.56
2018-10-18T14:06:31.357Z,23.67
2018-10-18T14:07:41.509Z,23.63
2018-10-18T14:08:51.833Z,23.7
2018-10-18T14:10:01.931Z,23.67
2018-10-18T14:11:12.390Z,23.7
2018-10-18T14:12:22.425Z,23.63
2018-10-18T14:13:31.989Z,23.64
2018-10-18T14:14:42.078Z,23.71
2018-10-18T14:15:51.913Z,23.66
2018-10-18T14:17:02.193Z,23.71
2018-10-18T14:18:12.828Z,23.59
2018-10-18T14:19:22.694Z,23.5
2018-10-18T14:20:32.767Z,23.6
2018-10-18T14:21:42.877Z,23.56
2018-10-18T14:22:53.192Z,23.56
2018-10-18T14:24:03.416Z,23.5
2018-10-18T14:25:13.536Z,23.6
2018-10-18T14:26:23.461Z,23.52
2018-10-18T14:27:33.008Z,23.55
2018-10-18T14:28:43.104Z,23.59
2018-10-18T14:29:53.200Z,23.55
2018-10-18T14:31:03.751Z,23.66
2018-10-18T14:32:14.183Z,23.59
2018-10-18T14:33:24.839Z,23.7
2018-10-18T14:34:34.941Z,23.62
2018-10-18T14:35:45.038Z,23.59
2018-10-18T14:36:54.922Z,23.62
2018-10-18T14:38:05.332Z,23.59
2018-10-18T14:39:15.836Z,23.57
2018-10-18T14:40:25.935Z,23.57
2018-10-18T14:41:36.004Z,23.55
2018-10-18T14:42:46.100Z,23.5
2018-10-18T14:43:56.566Z,23.59
2018-10-18T14:45:07.551Z,23.53
2018-10-18T14:46:17.722Z,23.41
2018-10-18T14:47:28.649Z,23.38
2018-10-18T14:48:39.027Z,23.4
2018-10-18T14:49:48.603Z,23.28
2018-10-18T14:50:58.814Z,23.24
2018-10-18T14:52:09.189Z,23.24
2018-10-18T14:53:19.821Z,23.14
2018-10-18T14:54:30.043Z,23.12
2018-10-18T14:55:39.871Z,23.12
2018-10-18T14:56:49.945Z,23.1
2018-10-18T14:58:00.051Z,23.1
2018-10-18T14:59:10.435Z,22.94
2018-10-18T15:00:20.764Z,22.91
2018-10-18T15:01:30.599Z,22.91
2018-10-18T15:02:40.684Z,22.94
2018-10-18T15:03:50.838Z,22.86
2018-10-18T15:05:02.257Z,22.78
2018-10-18T15:06:12.705Z,22.79
2018-10-18T15:07:22.559Z,22.73
2018-10-18T15:08:32.408Z,22.73
2018-10-18T15:09:42.498Z,22.63
2018-10-18T15:10:52.609Z,22.54
2018-10-18T15:12:03.754Z,22.49
2018-10-18T15:13:13.620Z,22.51
2018-10-18T15:14:23.715Z,22.38
2018-10-18T15:15:33.843Z,22.42
2018-10-18T15:16:43.699Z,22.38
2018-10-18T15:17:54.553Z,22.3
2018-10-18T15:19:04.739Z,22.31
2018-10-18T15:20:14.542Z,22.23
2018-10-18T15:21:24.613Z,22.24
2018-10-18T15:22:34.714Z,22.16
2018-10-18T15:23:44.863Z,22.11
2018-10-18T15:24:54.931Z,22.08
2018-10-18T15:26:05.373Z,22.04
2018-10-18T15:27:15.915Z,21.99
2018-10-18T15:28:26.023Z,21.99
2018-10-18T15:29:36.145Z,21.99
2018-10-18T15:30:46.228Z,21.9
2018-10-18T15:31:56.639Z,21.85
2018-10-18T15:33:07.697Z,21.78
2018-10-18T15:34:18.213Z,21.86
2018-10-18T15:35:28.384Z,21.71
2018-10-18T15:36:38.532Z,21.62
2018-10-18T15:37:48.782Z,21.59
2018-10-18T15:38:59.769Z,21.48
2018-10-18T15:40:10.333Z,21.52
2018-10-18T15:41:20.647Z,21.41